createdAt,value
2023-03-12T00:00:10.000Z,66.44
2023-03-12T00:01:16.000Z,66.54
2023-03-12T00:02:09.000Z,66.67
2023-03-12T00:03:09.000Z,66.24
2023-03-12T00:04:09.000Z,66.49
2023-03-12T00:05:09.000Z,66.43
2023-03-12T00:06:10.000Z,66.47
2023-03-12T00:07:09.000Z,66.37
2023-03-12T00:08:10.000Z,66.84
2023-03-12T00:09:09.000Z,66.59
2023-03-12T00:10:09.000Z,66.79
2023-03-12T00:11:12.000Z,67.12
2023-03-12T00:12:09.000Z,67.18
2023-03-12T00:13:09.000Z,67.29
2023-03-12T00:14:09.000Z,67.26
2023-03-12T00:15:10.000Z,67.46
2023-03-12T00:16:12.000Z,67.59
2023-03-12T00:17:09.000Z,67.54
2023-03-12T00:18:09.000Z,67.49
2023-03-12T00:19:11.000Z,67.85
2023-03-12T00:20:10.000Z,67.67
2023-03-12T00:21:09.000Z,67.76
2023-03-12T00:22:09.000Z,67.44
2023-03-12T00:23:09.000Z,67.53
2023-03-12T00:24:09.000Z,67.55
2023-03-12T00:25:11.000Z,67.72
2023-03-12T00:26:11.000Z,68.25
2023-03-12T00:27:09.000Z,68.18
2023-03-12T00:28:09.000Z,67.98
2023-03-12T00:29:09.000Z,68.28
2023-03-12T00:30:10.000Z,68.39
2023-03-12T00:31:19.000Z,68.21
2023-03-12T00:32:09.000Z,68.21
2023-03-12T00:33:10.000Z,68.25
2023-03-12T00:34:09.000Z,68.49
2023-03-12T00:35:09.000Z,68.52
2023-03-12T00:36:09.000Z,68.83
2023-03-12T00:37:09.000Z,68.76
2023-03-12T00:38:09.000Z,69.49
2023-03-12T00:39:09.000Z,69.21
2023-03-12T00:40:10.000Z,68.65
2023-03-12T00:41:09.000Z,69.25
2023-03-12T00:42:10.000Z,69.03
2023-03-12T00:43:09.000Z,68.77
2023-03-12T00:44:09.000Z,68.65
2023-03-12T00:45:09.000Z,68.94
2023-03-12T00:46:09.000Z,69.01
2023-03-12T00:47:10.000Z,69.04
2023-03-12T00:48:09.000Z,69.17
2023-03-12T00:49:10.000Z,69.03
2023-03-12T00:50:09.000Z,69.15
2023-03-12T00:51:10.000Z,69.19
2023-03-12T00:52:09.000Z,68.46
2023-03-12T00:53:09.000Z,68.93
2023-03-12T00:54:09.000Z,69.12
2023-03-12T00:55:09.000Z,69.05
2023-03-12T00:56:09.000Z,68.68
2023-03-12T00:57:09.000Z,68.46
2023-03-12T00:58:09.000Z,68.69
2023-03-12T00:59:09.000Z,68.44
2023-03-12T01:00:11.000Z,68.74
2023-03-12T01:01:09.000Z,68.95
2023-03-12T01:02:09.000Z,68.76
2023-03-12T01:03:10.000Z,68.61
2023-03-12T01:04:09.000Z,68.23
2023-03-12T01:05:11.000Z,68.30
2023-03-12T01:06:10.000Z,68.74
2023-03-12T01:07:09.000Z,68.79
2023-03-12T01:08:10.000Z,68.27
2023-03-12T01:09:09.000Z,68.49
2023-03-12T01:10:13.000Z,68.47
2023-03-12T01:11:17.000Z,68.10
2023-03-12T01:12:10.000Z,68.29
2023-03-12T01:13:10.000Z,67.90
2023-03-12T01:14:10.000Z,68.98
2023-03-12T01:15:12.000Z,68.44
2023-03-12T01:16:10.000Z,68.57
2023-03-12T01:17:09.000Z,69.11
2023-03-12T01:18:10.000Z,69.68
2023-03-12T01:19:09.000Z,69.23
2023-03-12T01:20:10.000Z,69.45
2023-03-12T01:21:11.000Z,69.36
2023-03-12T01:22:09.000Z,69.53
2023-03-12T01:23:10.000Z,69.69
2023-03-12T01:24:09.000Z,69.08
2023-03-12T01:25:10.000Z,68.92
2023-03-12T01:26:09.000Z,69.11
2023-03-12T01:27:09.000Z,69.07
2023-03-12T01:28:09.000Z,68.80
2023-03-12T01:29:09.000Z,68.88
2023-03-12T01:30:10.000Z,68.54
2023-03-12T01:31:13.000Z,68.34
2023-03-12T01:32:10.000Z,68.45
2023-03-12T01:33:10.000Z,69.03
2023-03-12T01:34:10.000Z,68.48
2023-03-12T01:35:10.000Z,69.04
2023-03-12T01:36:22.000Z,69.03
2023-03-12T01:37:10.000Z,68.90
2023-03-12T01:38:13.000Z,69.07
2023-03-12T01:39:09.000Z,68.64
2023-03-12T01:40:15.000Z,68.47
2023-03-12T01:41:10.000Z,68.11
2023-03-12T01:42:10.000Z,68.30
2023-03-12T01:43:29.000Z,68.47
2023-03-12T01:44:13.000Z,68.53
2023-03-12T01:45:30.000Z,68.30
2023-03-12T01:46:19.000Z,68.47
2023-03-12T01:47:10.000Z,68.58
2023-03-12T01:48:10.000Z,68.87
2023-03-12T01:49:18.000Z,68.70
2023-03-12T01:50:10.000Z,68.81
2023-03-12T01:51:12.000Z,68.74
2023-03-12T01:52:14.000Z,68.80
2023-03-12T01:53:10.000Z,69.43
2023-03-12T01:54:18.000Z,69.08
2023-03-12T01:55:14.000Z,69.17
2023-03-12T01:56:11.000Z,69.56
2023-03-12T01:57:17.000Z,69.76
2023-03-12T01:58:09.000Z,69.64
2023-03-12T01:59:17.000Z,69.37
2023-03-12T02:00:14.000Z,69.56
2023-03-12T02:01:09.000Z,69.58
2023-03-12T02:02:10.000Z,70.00
2023-03-12T02:03:10.000Z,69.70
2023-03-12T02:04:11.000Z,69.98
2023-03-12T02:05:19.000Z,69.98
2023-03-12T02:06:13.000Z,70.16
2023-03-12T02:07:14.000Z,70.31
2023-03-12T02:08:11.000Z,70.45
2023-03-12T02:09:12.000Z,70.37
2023-03-12T02:10:10.000Z,70.42
2023-03-12T02:11:09.000Z,70.40
2023-03-12T02:12:09.000Z,70.02
2023-03-12T02:13:10.000Z,70.31
2023-03-12T02:14:09.000Z,70.39
2023-03-12T02:15:10.000Z,70.90
2023-03-12T02:16:09.000Z,70.64
2023-03-12T02:17:09.000Z,70.28
2023-03-12T02:18:14.000Z,70.71
2023-03-12T02:19:29.000Z,70.91
2023-03-12T02:20:32.000Z,70.68
2023-03-12T02:21:18.000Z,70.75
2023-03-12T02:22:10.000Z,70.58
2023-03-12T02:23:24.000Z,70.34
2023-03-12T02:24:23.000Z,70.60
2023-03-12T02:25:24.000Z,70.73
2023-03-12T02:26:11.000Z,70.69
2023-03-12T02:27:10.000Z,70.93
2023-03-12T02:28:12.000Z,70.65
2023-03-12T02:29:10.000Z,70.76
2023-03-12T02:30:15.000Z,71.18
2023-03-12T02:31:22.000Z,70.67
2023-03-12T02:32:18.000Z,71.04
2023-03-12T02:33:10.000Z,70.95
2023-03-12T02:34:09.000Z,70.67
2023-03-12T02:35:10.000Z,70.76
2023-03-12T02:36:10.000Z,71.13
2023-03-12T02:37:09.000Z,70.80
2023-03-12T02:38:19.000Z,70.98
2023-03-12T02:39:10.000Z,71.21
2023-03-12T02:40:21.000Z,71.21
2023-03-12T02:41:22.000Z,71.10
2023-03-12T02:42:09.000Z,71.11
2023-03-12T02:43:10.000Z,70.89
2023-03-12T02:44:14.000Z,71.53
2023-03-12T02:45:09.000Z,70.93
2023-03-12T02:46:10.000Z,71.29
2023-03-12T02:47:09.000Z,71.25
2023-03-12T02:48:09.000Z,71.44
2023-03-12T02:49:12.000Z,71.47
2023-03-12T02:50:10.000Z,71.65
2023-03-12T02:51:09.000Z,71.78
2023-03-12T02:52:09.000Z,71.45
2023-03-12T02:53:09.000Z,71.91
2023-03-12T02:54:11.000Z,71.60
2023-03-12T02:55:09.000Z,71.74
2023-03-12T02:56:09.000Z,71.70
2023-03-12T02:57:09.000Z,71.50
2023-03-12T02:58:09.000Z,71.46
2023-03-12T02:59:10.000Z,71.25
2023-03-12T03:00:14.000Z,71.58
2023-03-12T03:01:09.000Z,71.21
2023-03-12T03:02:11.000Z,71.49
2023-03-12T03:03:09.000Z,71.46
2023-03-12T03:04:10.000Z,71.40
2023-03-12T03:05:10.000Z,71.78
2023-03-12T03:06:09.000Z,71.42
2023-03-12T03:07:09.000Z,71.09
2023-03-12T03:08:09.000Z,70.92
2023-03-12T03:09:09.000Z,70.75
2023-03-12T03:10:09.000Z,70.67
2023-03-12T03:11:10.000Z,70.81
2023-03-12T03:12:09.000Z,70.60
2023-03-12T03:13:09.000Z,70.56
2023-03-12T03:14:09.000Z,70.60
2023-03-12T03:15:10.000Z,70.30
2023-03-12T03:16:11.000Z,70.57
2023-03-12T03:17:09.000Z,70.29
2023-03-12T03:18:09.000Z,70.56
2023-03-12T03:19:10.000Z,70.78
2023-03-12T03:20:10.000Z,70.81
2023-03-12T03:21:13.000Z,70.83
2023-03-12T03:22:09.000Z,70.75
2023-03-12T03:23:09.000Z,70.99
2023-03-12T03:24:09.000Z,70.79
2023-03-12T03:25:09.000Z,71.00
2023-03-12T03:26:09.000Z,70.78
2023-03-12T03:27:09.000Z,70.81
2023-03-12T03:28:09.000Z,70.83
2023-03-12T03:29:09.000Z,70.50
2023-03-12T03:30:10.000Z,70.73
2023-03-12T03:31:10.000Z,70.79
2023-03-12T03:32:09.000Z,70.88
2023-03-12T03:33:09.000Z,70.88
2023-03-12T03:34:10.000Z,70.79
2023-03-12T03:35:10.000Z,70.60
2023-03-12T03:36:10.000Z,70.65
2023-03-12T03:37:09.000Z,70.48
2023-03-12T03:38:10.000Z,70.77
2023-03-12T03:39:09.000Z,70.71
2023-03-12T03:40:11.000Z,70.62
2023-03-12T03:41:09.000Z,70.70
2023-03-12T03:42:09.000Z,70.84
2023-03-12T03:43:09.000Z,70.65
2023-03-12T03:44:09.000Z,70.56
2023-03-12T03:45:09.000Z,70.65
2023-03-12T03:46:11.000Z,70.38
2023-03-12T03:47:09.000Z,70.26
2023-03-12T03:48:11.000Z,70.37
2023-03-12T03:49:09.000Z,70.64
2023-03-12T03:50:10.000Z,70.30
2023-03-12T03:51:10.000Z,70.32
2023-03-12T03:52:09.000Z,70.08
2023-03-12T03:53:11.000Z,69.81
2023-03-12T03:54:10.000Z,70.08
2023-03-12T03:55:09.000Z,69.74
2023-03-12T03:56:13.000Z,69.86
2023-03-12T03:57:09.000Z,69.69
2023-03-12T03:58:10.000Z,69.49
2023-03-12T03:59:09.000Z,69.18
2023-03-12T04:00:13.000Z,69.34
2023-03-12T04:01:12.000Z,69.15
2023-03-12T04:02:09.000Z,69.41
2023-03-12T04:03:09.000Z,69.21
2023-03-12T04:04:09.000Z,69.05
2023-03-12T04:05:10.000Z,68.84
2023-03-12T04:06:10.000Z,69.03
2023-03-12T04:07:09.000Z,69.03
2023-03-12T04:08:11.000Z,69.21
2023-03-12T04:09:09.000Z,69.00
2023-03-12T04:10:10.000Z,68.93
2023-03-12T04:11:16.000Z,69.18
2023-03-12T04:12:09.000Z,69.00
2023-03-12T04:13:09.000Z,69.08
2023-03-12T04:14:09.000Z,68.97
2023-03-12T04:15:09.000Z,69.41
2023-03-12T04:16:10.000Z,68.97
2023-03-12T04:17:09.000Z,68.99
2023-03-12T04:18:09.000Z,69.18
2023-03-12T04:19:09.000Z,69.01
2023-03-12T04:20:10.000Z,68.98
2023-03-12T04:21:11.000Z,68.87
2023-03-12T04:22:09.000Z,69.17
2023-03-12T04:23:10.000Z,68.94
2023-03-12T04:24:14.000Z,69.26
2023-03-12T04:25:10.000Z,68.91
2023-03-12T04:26:09.000Z,68.86
2023-03-12T04:27:09.000Z,68.71
2023-03-12T04:28:09.000Z,68.75
2023-03-12T04:29:09.000Z,68.50
2023-03-12T04:30:10.000Z,68.70
2023-03-12T04:31:10.000Z,68.62
2023-03-12T04:32:09.000Z,68.92
2023-03-12T04:33:09.000Z,68.60
2023-03-12T04:34:10.000Z,68.74
2023-03-12T04:35:09.000Z,68.74
2023-03-12T04:36:10.000Z,68.54
2023-03-12T04:37:12.000Z,68.74
2023-03-12T04:38:09.000Z,68.62
2023-03-12T04:39:09.000Z,68.62
2023-03-12T04:40:10.000Z,68.95
2023-03-12T04:41:11.000Z,68.82
2023-03-12T04:42:09.000Z,68.99
2023-03-12T04:43:09.000Z,68.93
2023-03-12T04:44:09.000Z,69.06
2023-03-12T04:45:10.000Z,68.94
2023-03-12T04:46:09.000Z,68.90
2023-03-12T04:47:09.000Z,68.95
2023-03-12T04:48:09.000Z,68.93
2023-03-12T04:49:09.000Z,68.87
2023-03-12T04:50:10.000Z,68.84
2023-03-12T04:51:09.000Z,68.94
2023-03-12T04:52:09.000Z,68.92
2023-03-12T04:53:09.000Z,69.10
2023-03-12T04:54:09.000Z,69.11
2023-03-12T04:55:09.000Z,69.26
2023-03-12T04:56:09.000Z,69.28
2023-03-12T04:57:09.000Z,69.12
2023-03-12T04:58:09.000Z,69.23
2023-03-12T04:59:09.000Z,69.19
2023-03-12T05:00:12.000Z,69.71
2023-03-12T05:01:29.000Z,69.29
2023-03-12T05:02:09.000Z,69.41
2023-03-12T05:03:09.000Z,69.54
2023-03-12T05:04:09.000Z,69.36
2023-03-12T05:05:09.000Z,69.62
2023-03-12T05:06:09.000Z,69.19
2023-03-12T05:07:09.000Z,69.05
2023-03-12T05:08:09.000Z,68.97
2023-03-12T05:09:09.000Z,69.06
2023-03-12T05:10:09.000Z,69.32
2023-03-12T05:11:09.000Z,69.34
2023-03-12T05:12:09.000Z,69.12
2023-03-12T05:13:15.000Z,69.27
2023-03-12T05:14:10.000Z,69.90
2023-03-12T05:15:09.000Z,69.49
2023-03-12T05:16:10.000Z,69.60
2023-03-12T05:17:09.000Z,69.63
2023-03-12T05:18:09.000Z,70.16
2023-03-12T05:19:09.000Z,69.75
2023-03-12T05:20:10.000Z,69.77
2023-03-12T05:21:18.000Z,69.79
2023-03-12T05:22:09.000Z,69.77
2023-03-12T05:23:09.000Z,69.73
2023-03-12T05:24:09.000Z,70.01
2023-03-12T05:25:10.000Z,69.58
2023-03-12T05:26:15.000Z,69.39
2023-03-12T05:27:10.000Z,69.70
2023-03-12T05:28:09.000Z,69.79
2023-03-12T05:29:09.000Z,69.64
2023-03-12T05:30:09.000Z,69.77
2023-03-12T05:31:10.000Z,69.85
2023-03-12T05:32:09.000Z,70.16
2023-03-12T05:33:09.000Z,70.04
2023-03-12T05:34:11.000Z,69.88
2023-03-12T05:35:09.000Z,70.00
2023-03-12T05:36:09.000Z,70.06
2023-03-12T05:37:09.000Z,70.49
2023-03-12T05:38:09.000Z,70.32
2023-03-12T05:39:09.000Z,70.41
2023-03-12T05:40:10.000Z,70.67
2023-03-12T05:41:21.000Z,71.17
2023-03-12T05:42:09.000Z,70.73
2023-03-12T05:43:09.000Z,71.46
2023-03-12T05:44:10.000Z,71.53
2023-03-12T05:45:09.000Z,71.28
2023-03-12T05:46:09.000Z,71.35
2023-03-12T05:47:09.000Z,71.58
2023-03-12T05:48:08.000Z,71.67
2023-03-12T05:49:09.000Z,72.03
2023-03-12T05:50:10.000Z,72.58
2023-03-12T05:51:09.000Z,72.97
2023-03-12T05:52:09.000Z,72.48
2023-03-12T05:53:09.000Z,72.50
2023-03-12T05:54:09.000Z,73.26
2023-03-12T05:55:09.000Z,73.28
2023-03-12T05:56:12.000Z,73.72
2023-03-12T05:57:09.000Z,73.71
2023-03-12T05:58:09.000Z,73.79
2023-03-12T05:59:09.000Z,73.59
2023-03-12T06:00:12.000Z,73.34
2023-03-12T06:01:15.000Z,73.93
2023-03-12T06:02:09.000Z,73.97
2023-03-12T06:03:10.000Z,74.17
2023-03-12T06:04:08.000Z,74.27
2023-03-12T06:05:10.000Z,74.18
2023-03-12T06:06:09.000Z,74.41
2023-03-12T06:07:09.000Z,74.89
2023-03-12T06:08:08.000Z,74.71
2023-03-12T06:09:09.000Z,74.43
2023-03-12T06:10:10.000Z,74.58
2023-03-12T06:11:09.000Z,74.47
2023-03-12T06:12:08.000Z,75.19
2023-03-12T06:13:09.000Z,75.18
2023-03-12T06:14:09.000Z,75.49
2023-03-12T06:15:09.000Z,75.68
2023-03-12T06:16:22.000Z,75.84
2023-03-12T06:17:09.000Z,76.25
2023-03-12T06:18:09.000Z,76.55
2023-03-12T06:19:12.000Z,76.82
2023-03-12T06:20:09.000Z,77.46
2023-03-12T06:21:18.000Z,77.61
2023-03-12T06:22:09.000Z,77.51
2023-03-12T06:23:09.000Z,78.65
2023-03-12T06:24:08.000Z,78.30
2023-03-12T06:25:09.000Z,78.48
2023-03-12T06:26:10.000Z,79.06
2023-03-12T06:27:09.000Z,79.49
2023-03-12T06:28:09.000Z,79.58
2023-03-12T06:29:09.000Z,80.96
2023-03-12T06:30:09.000Z,80.32
2023-03-12T06:31:09.000Z,80.62
2023-03-12T06:32:08.000Z,80.69
2023-03-12T06:33:09.000Z,80.94
2023-03-12T06:34:09.000Z,81.57
2023-03-12T06:35:09.000Z,82.03
2023-03-12T06:36:10.000Z,82.13
2023-03-12T06:37:09.000Z,82.58
2023-03-12T06:38:09.000Z,83.20
2023-03-12T06:39:08.000Z,82.22
2023-03-12T06:40:10.000Z,83.04
2023-03-12T06:41:11.000Z,82.57
2023-03-12T06:42:11.000Z,82.16
2023-03-12T06:43:10.000Z,82.08
2023-03-12T06:44:09.000Z,83.03
2023-03-12T06:45:09.000Z,82.69
2023-03-12T06:46:14.000Z,82.47
2023-03-12T06:47:09.000Z,82.77
2023-03-12T06:48:09.000Z,83.02
2023-03-12T06:49:09.000Z,82.05
2023-03-12T06:50:09.000Z,82.14
2023-03-12T06:51:11.000Z,82.80
2023-03-12T06:52:09.000Z,82.38
2023-03-12T06:53:09.000Z,81.96
2023-03-12T06:54:09.000Z,81.96
2023-03-12T06:55:09.000Z,81.82
2023-03-12T06:56:10.000Z,82.16
2023-03-12T06:57:09.000Z,82.69
2023-03-12T06:58:09.000Z,82.61
2023-03-12T06:59:09.000Z,82.58
2023-03-12T07:00:09.000Z,82.94
2023-03-12T07:01:09.000Z,82.95
2023-03-12T07:02:10.000Z,82.40
2023-03-12T07:03:09.000Z,82.42
2023-03-12T07:04:09.000Z,82.80
2023-03-12T07:05:09.000Z,82.71
2023-03-12T07:06:14.000Z,83.19
2023-03-12T07:07:11.000Z,83.35
2023-03-12T07:08:09.000Z,83.00
2023-03-12T07:09:09.000Z,83.10
2023-03-12T07:10:10.000Z,82.91
2023-03-12T07:11:10.000Z,83.36
2023-03-12T07:12:09.000Z,83.94
2023-03-12T07:13:10.000Z,84.21
2023-03-12T07:14:10.000Z,84.39
2023-03-12T07:15:10.000Z,85.36
2023-03-12T07:16:10.000Z,85.47
2023-03-12T07:17:09.000Z,85.41
2023-03-12T07:18:10.000Z,85.02
2023-03-12T07:19:09.000Z,86.56
2023-03-12T07:20:10.000Z,87.25
2023-03-12T07:21:09.000Z,86.58
2023-03-12T07:22:09.000Z,86.33
2023-03-12T07:23:09.000Z,86.88
2023-03-12T07:24:09.000Z,86.46
2023-03-12T07:25:10.000Z,86.60
2023-03-12T07:26:09.000Z,86.72
2023-03-12T07:27:09.000Z,86.94
2023-03-12T07:28:11.000Z,86.65
2023-03-12T07:29:09.000Z,86.37
2023-03-12T07:30:10.000Z,86.46
2023-03-12T07:31:10.000Z,87.00
2023-03-12T07:32:10.000Z,87.33
2023-03-12T07:33:11.000Z,88.22
2023-03-12T07:34:09.000Z,88.13
2023-03-12T07:35:09.000Z,88.66
2023-03-12T07:36:09.000Z,88.90
2023-03-12T07:37:09.000Z,89.52
2023-03-12T07:38:09.000Z,89.63
2023-03-12T07:39:09.000Z,89.51
2023-03-12T07:40:10.000Z,89.90
2023-03-12T07:41:09.000Z,90.52
2023-03-12T07:42:11.000Z,90.10
2023-03-12T07:43:11.000Z,89.80
2023-03-12T07:44:09.000Z,89.81
2023-03-12T07:45:09.000Z,90.15
2023-03-12T07:46:09.000Z,90.73
2023-03-12T07:47:09.000Z,91.26
2023-03-12T07:48:09.000Z,91.25
2023-03-12T07:49:09.000Z,91.07
2023-03-12T07:50:10.000Z,91.69
2023-03-12T07:51:09.000Z,91.25
2023-03-12T07:52:10.000Z,91.42
2023-03-12T07:53:09.000Z,91.53
2023-03-12T07:54:09.000Z,91.61
2023-03-12T07:55:09.000Z,92.03
2023-03-12T07:56:09.000Z,92.00
2023-03-12T07:57:09.000Z,92.30
2023-03-12T07:58:12.000Z,92.40
2023-03-12T07:59:09.000Z,91.97
2023-03-12T08:00:10.000Z,92.19
2023-03-12T08:01:09.000Z,92.44
2023-03-12T08:02:09.000Z,91.91
2023-03-12T08:03:09.000Z,91.92
2023-03-12T08:04:09.000Z,92.18
2023-03-12T08:05:09.000Z,91.98
2023-03-12T08:06:09.000Z,92.93
2023-03-12T08:07:08.000Z,92.74
2023-03-12T08:08:08.000Z,93.39
2023-03-12T08:09:09.000Z,93.30
2023-03-12T08:10:09.000Z,92.62
2023-03-12T08:11:08.000Z,92.89
2023-03-12T08:12:09.000Z,92.50
2023-03-12T08:13:08.000Z,92.38
2023-03-12T08:14:08.000Z,92.43
2023-03-12T08:15:09.000Z,92.84
2023-03-12T08:16:09.000Z,92.42
2023-03-12T08:17:09.000Z,93.63
2023-03-12T08:18:09.000Z,92.80
2023-03-12T08:19:08.000Z,92.90
2023-03-12T08:20:10.000Z,92.87
2023-03-12T08:21:08.000Z,93.30
2023-03-12T08:22:08.000Z,93.75
2023-03-12T08:23:09.000Z,93.93
2023-03-12T08:24:08.000Z,93.94
2023-03-12T08:25:09.000Z,93.88
2023-03-12T08:26:08.000Z,94.22
2023-03-12T08:27:10.000Z,93.79
2023-03-12T08:28:08.000Z,94.29
2023-03-12T08:29:08.000Z,93.93
2023-03-12T08:30:09.000Z,94.19
2023-03-12T08:31:08.000Z,94.29
2023-03-12T08:32:08.000Z,93.83
2023-03-12T08:33:08.000Z,93.69
2023-03-12T08:34:08.000Z,93.26
2023-03-12T08:35:09.000Z,93.11
2023-03-12T08:36:08.000Z,93.28
2023-03-12T08:37:08.000Z,92.83
2023-03-12T08:38:08.000Z,93.15
2023-03-12T08:39:08.000Z,94.06
2023-03-12T08:40:12.000Z,94.03
2023-03-12T08:41:08.000Z,93.65
2023-03-12T08:42:08.000Z,93.47
2023-03-12T08:43:08.000Z,93.92
2023-03-12T08:44:08.000Z,93.55
2023-03-12T08:45:10.000Z,93.45
2023-03-12T08:46:08.000Z,93.40
2023-03-12T08:47:08.000Z,94.67
2023-03-12T08:48:08.000Z,94.67
2023-03-12T08:49:08.000Z,94.66
2023-03-12T08:50:11.000Z,95.05
2023-03-12T08:51:08.000Z,94.59
2023-03-12T08:52:08.000Z,94.17
2023-03-12T08:53:08.000Z,95.19
2023-03-12T08:54:08.000Z,95.40
2023-03-12T08:55:09.000Z,95.67
2023-03-12T08:56:08.000Z,95.55
2023-03-12T08:57:08.000Z,95.57
2023-03-12T08:58:08.000Z,95.75
2023-03-12T08:59:09.000Z,95.78
2023-03-12T09:00:10.000Z,95.63
2023-03-12T09:01:11.000Z,96.06
2023-03-12T09:02:10.000Z,96.11
2023-03-12T09:03:12.000Z,96.22
2023-03-12T09:04:08.000Z,95.83
2023-03-12T09:05:10.000Z,96.12
2023-03-12T09:06:12.000Z,97.11
2023-03-12T09:07:09.000Z,96.84
2023-03-12T09:08:09.000Z,96.75
2023-03-12T09:09:09.000Z,96.79
2023-03-12T09:10:09.000Z,97.00
2023-03-12T09:11:11.000Z,96.47
2023-03-12T09:12:10.000Z,96.81
2023-03-12T09:13:09.000Z,97.32
2023-03-12T09:14:09.000Z,98.48
2023-03-12T09:15:09.000Z,97.55
2023-03-12T09:16:09.000Z,97.20
2023-03-12T09:17:09.000Z,97.46
2023-03-12T09:18:09.000Z,97.62
2023-03-12T09:19:09.000Z,97.66
2023-03-12T09:20:12.000Z,97.41
2023-03-12T09:21:09.000Z,97.55
2023-03-12T09:22:09.000Z,97.72
2023-03-12T09:23:09.000Z,97.87
2023-03-12T09:24:10.000Z,97.41
2023-03-12T09:25:10.000Z,97.61
2023-03-12T09:26:10.000Z,97.42
2023-03-12T09:27:09.000Z,97.73
2023-03-12T09:28:09.000Z,98.21
2023-03-12T09:29:09.000Z,97.86
2023-03-12T09:30:12.000Z,97.71
2023-03-12T09:31:09.000Z,97.36
2023-03-12T09:32:09.000Z,97.24
2023-03-12T09:33:09.000Z,97.75
2023-03-12T09:34:09.000Z,98.49
2023-03-12T09:35:10.000Z,98.10
2023-03-12T09:36:09.000Z,98.43
2023-03-12T09:37:08.000Z,98.03
2023-03-12T09:38:12.000Z,97.75
2023-03-12T09:39:08.000Z,97.86
2023-03-12T09:40:15.000Z,97.77
2023-03-12T09:41:16.000Z,98.09
2023-03-12T09:42:21.000Z,98.15
2023-03-12T09:43:16.000Z,98.18
2023-03-12T09:44:23.000Z,98.04
2023-03-12T09:45:16.000Z,98.11
2023-03-12T09:46:17.000Z,97.87
2023-03-12T09:47:22.000Z,98.18
2023-03-12T09:48:14.000Z,98.29
2023-03-12T09:49:16.000Z,98.39
2023-03-12T09:50:28.000Z,98.19
2023-03-12T09:51:18.000Z,97.88
2023-03-12T09:52:20.000Z,98.05
2023-03-12T09:53:18.000Z,98.09
2023-03-12T09:54:22.000Z,98.64
2023-03-12T09:55:17.000Z,99.03
2023-03-12T09:56:13.000Z,98.65
2023-03-12T09:57:21.000Z,99.26
2023-03-12T09:58:16.000Z,99.04
2023-03-12T09:59:11.000Z,98.61
2023-03-12T10:00:14.000Z,98.17
2023-03-12T10:01:22.000Z,97.99
2023-03-12T10:02:36.000Z,98.53
2023-03-12T10:03:35.000Z,98.95
2023-03-12T10:04:31.000Z,98.86
2023-03-12T10:05:16.000Z,99.72
2023-03-12T10:06:16.000Z,100.00
2023-03-12T10:07:18.000Z,99.95
2023-03-12T10:08:23.000Z,99.65
2023-03-12T10:09:26.000Z,99.51
2023-03-12T10:10:16.000Z,100.00
2023-03-12T10:11:19.000Z,100.00
2023-03-12T10:12:31.000Z,99.77
2023-03-12T10:13:30.000Z,100.00
2023-03-12T10:14:23.000Z,100.00
2023-03-12T10:15:18.000Z,99.95
2023-03-12T10:16:29.000Z,99.84
2023-03-12T10:17:18.000Z,99.73
2023-03-12T10:18:18.000Z,99.41
2023-03-12T10:19:26.000Z,99.22
2023-03-12T10:20:31.000Z,99.81
2023-03-12T10:21:22.000Z,99.52
2023-03-12T10:22:30.000Z,99.71
2023-03-12T10:23:18.000Z,99.46
2023-03-12T10:24:18.000Z,99.30
2023-03-12T10:25:18.000Z,99.76
2023-03-12T10:26:16.000Z,99.74
2023-03-12T10:27:14.000Z,99.88
2023-03-12T10:28:16.000Z,99.88
2023-03-12T10:29:15.000Z,99.68
2023-03-12T10:30:18.000Z,99.75
2023-03-12T10:31:19.000Z,100.00
2023-03-12T10:32:24.000Z,100.00
2023-03-12T10:33:13.000Z,99.75
2023-03-12T10:34:32.000Z,99.53
2023-03-12T10:35:18.000Z,99.57
2023-03-12T10:36:17.000Z,99.92
2023-03-12T10:37:18.000Z,99.82
2023-03-12T10:38:21.000Z,100.00
2023-03-12T10:39:14.000Z,99.54
2023-03-12T10:40:14.000Z,99.65
2023-03-12T10:41:18.000Z,100.00
2023-03-12T10:42:15.000Z,100.00
2023-03-12T10:43:08.000Z,100.00
2023-03-12T10:44:16.000Z,100.00
2023-03-12T10:45:20.000Z,99.84
2023-03-12T10:46:28.000Z,100.00
2023-03-12T10:47:22.000Z,100.00
2023-03-12T10:48:18.000Z,100.00
2023-03-12T10:49:18.000Z,100.00
2023-03-12T10:50:18.000Z,100.00
2023-03-12T10:51:10.000Z,100.00
2023-03-12T10:52:15.000Z,100.00
2023-03-12T10:53:18.000Z,100.00
2023-03-12T10:54:29.000Z,100.00
2023-03-12T10:55:24.000Z,100.00
2023-03-12T10:56:14.000Z,100.00
2023-03-12T10:57:09.000Z,99.70
2023-03-12T10:58:18.000Z,99.45
2023-03-12T10:59:19.000Z,99.76
2023-03-12T11:00:17.000Z,99.89
2023-03-12T11:01:17.000Z,100.00
2023-03-12T11:02:18.000Z,100.00
2023-03-12T11:03:18.000Z,100.00
2023-03-12T11:04:19.000Z,100.00
2023-03-12T11:05:18.000Z,99.76
2023-03-12T11:06:21.000Z,100.00
2023-03-12T11:07:23.000Z,100.00
2023-03-12T11:08:29.000Z,100.00
2023-03-12T11:09:16.000Z,100.00
2023-03-12T11:10:39.000Z,100.00
2023-03-12T11:11:09.000Z,100.00
2023-03-12T11:12:19.000Z,100.00
2023-03-12T11:13:19.000Z,100.00
2023-03-12T11:14:21.000Z,100.00
2023-03-12T11:15:18.000Z,100.00
2023-03-12T11:16:32.000Z,100.00
2023-03-12T11:17:25.000Z,100.00
2023-03-12T11:18:19.000Z,100.00
2023-03-12T11:19:13.000Z,100.00
2023-03-12T11:20:33.000Z,100.00
2023-03-12T11:21:16.000Z,99.97
2023-03-12T11:22:10.000Z,99.73
2023-03-12T11:23:18.000Z,100.00
2023-03-12T11:24:12.000Z,100.00
2023-03-12T11:25:20.000Z,100.00
2023-03-12T11:26:19.000Z,100.00
2023-03-12T11:27:26.000Z,100.00
2023-03-12T11:28:19.000Z,100.00
2023-03-12T11:29:22.000Z,100.00
2023-03-12T11:30:15.000Z,100.00
2023-03-12T11:31:19.000Z,100.00
2023-03-12T11:32:22.000Z,100.00
2023-03-12T11:33:10.000Z,100.00
2023-03-12T11:34:21.000Z,100.00
2023-03-12T11:35:11.000Z,100.00
2023-03-12T11:36:32.000Z,100.00
2023-03-12T11:37:13.000Z,100.00
2023-03-12T11:38:19.000Z,100.00
2023-03-12T11:39:24.000Z,100.00
2023-03-12T11:40:31.000Z,100.00
2023-03-12T11:41:24.000Z,100.00
2023-03-12T11:42:18.000Z,100.00
2023-03-12T11:43:19.000Z,100.00
2023-03-12T11:44:23.000Z,100.00
2023-03-12T11:45:27.000Z,100.00
2023-03-12T11:46:18.000Z,100.00
2023-03-12T11:47:22.000Z,100.00
2023-03-12T11:48:35.000Z,100.00
2023-03-12T11:49:18.000Z,100.00
2023-03-12T11:50:18.000Z,100.00
2023-03-12T11:51:39.000Z,100.00
2023-03-12T11:52:25.000Z,100.00
2023-03-12T11:53:19.000Z,100.00
2023-03-12T11:54:19.000Z,100.00
2023-03-12T11:55:32.000Z,100.00
2023-03-12T11:56:27.000Z,100.00
2023-03-12T11:57:21.000Z,100.00
2023-03-12T11:58:24.000Z,100.00
2023-03-12T11:59:32.000Z,100.00
2023-03-12T12:00:16.000Z,100.00
2023-03-12T12:01:28.000Z,100.00
2023-03-12T12:02:42.000Z,100.00
2023-03-12T12:03:29.000Z,100.00
2023-03-12T12:04:35.000Z,100.00
2023-03-12T12:05:18.000Z,100.00
2023-03-12T12:06:29.000Z,100.00
2023-03-12T12:07:42.000Z,100.00
2023-03-12T12:08:38.000Z,100.00
2023-03-12T12:09:18.000Z,100.00
2023-03-12T12:10:18.000Z,100.00
2023-03-12T12:11:19.000Z,100.00
2023-03-12T12:12:28.000Z,100.00
2023-03-12T12:13:39.000Z,100.00
2023-03-12T12:14:32.000Z,100.00
2023-03-12T12:15:31.000Z,100.00
2023-03-12T12:16:18.000Z,100.00
2023-03-12T12:17:31.000Z,100.00
2023-03-12T12:18:19.000Z,100.00
2023-03-12T12:19:31.000Z,100.00
2023-03-12T12:20:18.000Z,100.00
2023-03-12T12:21:18.000Z,100.00
2023-03-12T12:22:26.000Z,100.00
2023-03-12T12:23:23.000Z,100.00
2023-03-12T12:24:31.000Z,100.00
2023-03-12T12:25:18.000Z,100.00
2023-03-12T12:26:36.000Z,100.00
2023-03-12T12:27:17.000Z,100.00
2023-03-12T12:28:18.000Z,100.00
2023-03-12T12:29:27.000Z,100.00
2023-03-12T12:30:18.000Z,100.00
2023-03-12T12:31:41.000Z,100.00
2023-03-12T12:32:18.000Z,100.00
2023-03-12T12:33:26.000Z,100.00
2023-03-12T12:34:29.000Z,100.00
2023-03-12T12:35:18.000Z,100.00
2023-03-12T12:36:08.000Z,100.00
2023-03-12T12:37:28.000Z,100.00
2023-03-12T12:38:27.000Z,100.00
2023-03-12T12:39:17.000Z,100.00
2023-03-12T12:40:18.000Z,100.00
2023-03-12T12:41:15.000Z,100.00
2023-03-12T12:42:16.000Z,100.00
2023-03-12T12:43:29.000Z,100.00
2023-03-12T12:44:15.000Z,100.00
2023-03-12T12:45:12.000Z,100.00
2023-03-12T12:46:15.000Z,100.00
2023-03-12T12:47:18.000Z,100.00
2023-03-12T12:48:18.000Z,100.00